createdAt,value
2018-03-21T00:00:23.265Z,4.40
2018-03-21T00:02:57.778Z,11.60
2018-03-21T00:05:32.534Z,2.70
2018-03-21T00:08:07.523Z,6.27
2018-03-21T00:10:42.382Z,5.47
2018-03-21T00:13:17.516Z,3.92
2018-03-21T00:15:52.032Z,5.60
2018-03-21T00:18:26.886Z,4.90
2018-03-21T00:21:02.082Z,7.43
2018-03-21T00:23:36.747Z,6.23
2018-03-21T00:26:11.574Z,7.60
2018-03-21T00:28:47.798Z,3.28
2018-03-21T00:31:22.135Z,4.83
2018-03-21T00:33:57.399Z,4.45
2018-03-21T00:36:32.318Z,4.07
2018-03-21T00:39:07.927Z,4.15
2018-03-21T00:41:42.993Z,8.53
2018-03-21T00:44:17.873Z,3.80
2018-03-21T00:46:52.979Z,3.33
2018-03-21T00:49:27.678Z,4.43
2018-03-21T00:52:02.743Z,4.18
2018-03-21T00:54:37.630Z,6.53
2018-03-21T00:57:13.362Z,3.90
2018-03-21T00:59:48.661Z,8.50
2018-03-21T01:02:23.567Z,4.23
2018-03-21T01:04:58.771Z,3.70
2018-03-21T01:07:33.203Z,5.63
2018-03-21T01:10:07.962Z,4.87
2018-03-21T01:12:42.874Z,3.33
2018-03-21T01:15:17.859Z,10.50
2018-03-21T01:17:52.577Z,3.87
2018-03-21T01:20:27.775Z,6.23
2018-03-21T01:23:02.898Z,5.60
2018-03-21T01:25:38.058Z,7.70
2018-03-21T01:28:13.152Z,8.77
2018-03-21T01:30:48.074Z,5.90
2018-03-21T01:33:22.890Z,3.03
2018-03-21T01:35:57.494Z,4.47
2018-03-21T01:38:32.543Z,6.73
2018-03-21T01:41:07.583Z,5.43
2018-03-21T01:43:42.741Z,4.62
2018-03-21T01:46:17.113Z,4.90
2018-03-21T01:48:52.114Z,3.55
2018-03-21T01:51:27.062Z,5.53
2018-03-21T01:54:02.019Z,7.03
2018-03-21T01:56:36.965Z,5.00
2018-03-21T01:59:11.935Z,6.27
2018-03-21T02:01:48.030Z,4.37
2018-03-21T02:04:22.901Z,3.70
2018-03-21T02:06:57.767Z,4.15
2018-03-21T02:09:32.735Z,7.83
2018-03-21T02:12:07.711Z,3.20
2018-03-21T02:14:42.824Z,2.83
2018-03-21T02:17:17.795Z,2.80
2018-03-21T02:19:52.231Z,3.87
2018-03-21T02:22:27.081Z,4.53
2018-03-21T02:25:02.171Z,4.37
2018-03-21T02:27:37.424Z,5.63
2018-03-21T02:30:12.770Z,6.20
2018-03-21T02:32:48.165Z,3.17
2018-03-21T02:35:23.279Z,8.13
2018-03-21T02:37:58.258Z,7.30
2018-03-21T02:40:33.262Z,9.43
2018-03-21T02:43:07.988Z,10.53
2018-03-21T02:45:42.929Z,5.87
2018-03-21T02:48:17.799Z,4.47
2018-03-21T02:50:52.797Z,4.47
2018-03-21T02:53:27.866Z,6.93
2018-03-21T02:56:02.331Z,7.53
2018-03-21T02:58:37.129Z,10.90
2018-03-21T03:01:12.187Z,8.53
2018-03-21T03:03:48.339Z,6.90
2018-03-21T03:06:23.102Z,6.70
2018-03-21T03:08:58.130Z,9.70
2018-03-21T03:11:32.975Z,5.67
2018-03-21T03:14:08.076Z,7.17
2018-03-21T03:16:43.298Z,6.17
2018-03-21T03:19:18.539Z,5.70
2018-03-21T03:21:54.102Z,6.70
2018-03-21T03:24:28.923Z,6.83
2018-03-21T03:27:04.283Z,5.70
2018-03-21T03:29:39.262Z,6.90
2018-03-21T03:32:15.174Z,10.33
2018-03-21T03:34:50.315Z,7.00
2018-03-21T03:37:25.213Z,4.97
2018-03-21T03:39:59.957Z,4.50
2018-03-21T03:42:35.249Z,5.10
2018-03-21T03:45:10.314Z,5.23
2018-03-21T03:47:45.303Z,8.80
2018-03-21T03:50:20.322Z,5.93
2018-03-21T03:52:56.254Z,6.95
2018-03-21T03:55:31.538Z,4.87
2018-03-21T03:58:06.284Z,6.77
2018-03-21T04:00:40.834Z,5.90
2018-03-21T04:03:16.090Z,10.57
2018-03-21T04:05:50.294Z,5.43
2018-03-21T04:08:25.356Z,7.20
2018-03-21T04:11:00.569Z,5.63
2018-03-21T04:13:35.255Z,10.03
2018-03-21T04:16:10.097Z,7.18
2018-03-21T04:18:45.067Z,5.83
2018-03-21T04:21:20.285Z,5.40
2018-03-21T04:23:55.363Z,4.83
2018-03-21T04:26:30.415Z,4.93
2018-03-21T04:29:05.354Z,3.65
2018-03-21T04:31:40.289Z,6.27
2018-03-21T04:34:15.129Z,6.00
2018-03-21T04:36:50.417Z,8.20
2018-03-21T04:39:25.266Z,3.57
2018-03-21T04:42:00.510Z,4.80
2018-03-21T04:44:35.187Z,4.13
2018-03-21T04:47:10.742Z,10.23
2018-03-21T04:49:45.466Z,3.87
2018-03-21T04:52:20.444Z,4.90
2018-03-21T04:54:55.362Z,5.03
2018-03-21T04:57:30.309Z,4.17
2018-03-21T05:00:05.586Z,4.60
2018-03-21T05:02:41.227Z,10.18
2018-03-21T05:05:16.010Z,7.20
2018-03-21T05:07:51.270Z,4.00
2018-03-21T05:10:26.340Z,6.20
2018-03-21T05:13:01.451Z,3.60
2018-03-21T05:15:36.330Z,4.60
2018-03-21T05:18:11.322Z,5.43
2018-03-21T05:20:46.343Z,4.40
2018-03-21T05:23:21.326Z,4.10
2018-03-21T05:25:56.502Z,8.07
2018-03-21T05:28:31.383Z,12.97
2018-03-21T05:31:06.102Z,3.80
2018-03-21T05:33:41.309Z,10.20
2018-03-21T05:36:16.082Z,13.02
2018-03-21T05:38:50.825Z,7.23
2018-03-21T05:41:26.290Z,4.75
2018-03-21T05:44:00.961Z,3.75
2018-03-21T05:46:36.011Z,7.30
2018-03-21T05:49:11.391Z,7.73
2018-03-21T05:51:48.736Z,4.22
2018-03-21T05:54:23.598Z,4.73
2018-03-21T05:56:58.630Z,10.20
2018-03-21T05:59:33.729Z,6.30
2018-03-21T06:02:08.608Z,4.13
2018-03-21T06:04:43.564Z,7.47
2018-03-21T06:07:18.890Z,7.80
2018-03-21T06:09:53.823Z,4.73
2018-03-21T06:12:29.399Z,6.23
2018-03-21T06:15:03.993Z,5.87
2018-03-21T06:17:39.354Z,3.97
2018-03-21T06:20:14.198Z,6.82
2018-03-21T06:22:48.788Z,5.23
2018-03-21T06:25:23.615Z,6.90
2018-03-21T06:27:58.776Z,7.43
2018-03-21T06:30:33.733Z,8.87
2018-03-21T06:33:08.519Z,9.10
2018-03-21T06:35:43.621Z,6.60
2018-03-21T06:38:18.707Z,9.07
2018-03-21T06:40:54.747Z,8.27
2018-03-21T06:43:29.542Z,8.23
2018-03-21T06:46:04.583Z,12.52
2018-03-21T06:48:39.457Z,19.70
2018-03-21T06:51:14.494Z,11.27
2018-03-21T06:53:49.433Z,10.87
2018-03-21T06:56:24.474Z,11.20
2018-03-21T06:58:59.643Z,12.43
2018-03-21T07:01:34.501Z,16.35
2018-03-21T07:04:09.555Z,10.63
2018-03-21T07:06:44.578Z,12.43
2018-03-21T07:09:19.633Z,14.80
2018-03-21T07:11:54.761Z,7.90
2018-03-21T07:14:40.854Z,10.33
2018-03-21T07:17:15.781Z,10.40
2018-03-21T07:19:50.801Z,12.30
2018-03-21T07:22:25.872Z,13.30
2018-03-21T07:25:00.810Z,10.83
2018-03-21T07:27:35.910Z,7.10
2018-03-21T07:30:10.782Z,10.40
2018-03-21T07:32:45.565Z,13.70
2018-03-21T07:35:20.555Z,13.90
2018-03-21T07:37:55.578Z,11.70
2018-03-21T07:40:30.230Z,16.53
2018-03-21T07:43:04.964Z,13.10
2018-03-21T07:45:39.965Z,7.80
2018-03-21T07:48:14.780Z,14.23
2018-03-21T07:50:49.554Z,10.70
2018-03-21T07:53:24.726Z,17.00
2018-03-21T07:56:00.047Z,7.30
2018-03-21T07:58:34.768Z,11.43
2018-03-21T08:01:09.483Z,11.47
2018-03-21T08:03:44.210Z,6.03
2018-03-21T08:06:18.795Z,9.50
2018-03-21T08:08:53.918Z,19.40
2018-03-21T08:11:28.747Z,11.10
2018-03-21T08:14:03.857Z,11.35
2018-03-21T08:16:38.714Z,12.82
2018-03-21T08:19:13.765Z,12.10
2018-03-21T08:21:49.166Z,8.03
2018-03-21T08:24:23.962Z,11.20
2018-03-21T08:26:59.130Z,9.80
2018-03-21T08:29:34.503Z,13.98
2018-03-21T08:32:09.282Z,11.30
2018-03-21T08:34:44.248Z,11.50
2018-03-21T08:37:19.466Z,14.00
2018-03-21T08:39:54.899Z,11.70
2018-03-21T08:42:29.786Z,14.27
2018-03-21T08:45:04.278Z,14.73
2018-03-21T08:47:39.222Z,11.30
2018-03-21T08:50:14.664Z,11.40
2018-03-21T08:52:49.683Z,13.82
2018-03-21T08:55:24.290Z,15.33
2018-03-21T08:57:59.343Z,11.67
2018-03-21T09:00:34.227Z,13.37
2018-03-21T09:03:09.074Z,14.60
2018-03-21T09:05:43.951Z,14.93
2018-03-21T09:08:19.083Z,12.30
2018-03-21T09:10:54.331Z,13.83
2018-03-21T09:13:28.984Z,8.50
2018-03-21T09:16:03.712Z,12.77
2018-03-21T09:18:38.147Z,11.20
2018-03-21T09:21:12.715Z,17.47
2018-03-21T09:23:49.050Z,18.40
2018-03-21T09:26:24.178Z,19.30
2018-03-21T09:29:00.223Z,15.40
2018-03-21T09:31:34.906Z,15.83
2018-03-21T09:34:09.888Z,20.43
2018-03-21T09:36:45.243Z,16.97
2018-03-21T09:39:20.881Z,15.77
2018-03-21T09:41:56.022Z,13.70
2018-03-21T09:44:31.090Z,15.37
2018-03-21T09:47:06.042Z,17.12
2018-03-21T09:49:40.413Z,15.43
2018-03-21T09:52:15.312Z,14.50
2018-03-21T09:54:50.899Z,14.70
2018-03-21T09:57:25.782Z,18.30
2018-03-21T10:00:00.418Z,16.90
2018-03-21T10:02:35.804Z,33.93
2018-03-21T10:05:10.667Z,19.70
2018-03-21T10:07:45.328Z,13.80
2018-03-21T10:10:20.790Z,19.70
2018-03-21T10:12:55.461Z,15.50
2018-03-21T10:15:30.710Z,16.35
2018-03-21T10:18:05.873Z,21.27
2018-03-21T10:20:40.802Z,22.08
2018-03-21T10:23:15.840Z,20.17
2018-03-21T10:25:51.287Z,16.70
2018-03-21T10:28:26.286Z,16.33
2018-03-21T10:31:01.246Z,24.30
2018-03-21T10:33:36.177Z,20.40
2018-03-21T10:36:11.073Z,21.40
2018-03-21T10:38:46.033Z,19.23
2018-03-21T10:41:21.063Z,12.43
2018-03-21T10:43:56.098Z,16.73
2018-03-21T10:46:30.967Z,10.60
2018-03-21T10:49:06.047Z,17.30
2018-03-21T10:51:40.994Z,13.27
2018-03-21T10:54:15.930Z,8.95
2018-03-21T10:56:51.283Z,16.73
2018-03-21T10:59:25.782Z,12.30
2018-03-21T11:02:05.784Z,12.35
2018-03-21T11:04:41.239Z,9.83
2018-03-21T11:07:16.142Z,12.40
2018-03-21T11:09:51.337Z,9.87
2018-03-21T11:12:26.000Z,11.80
2018-03-21T11:15:01.134Z,7.57
2018-03-21T11:17:36.042Z,12.50
2018-03-21T11:20:10.602Z,13.52
2018-03-21T11:22:45.725Z,11.63
2018-03-21T11:25:20.583Z,10.80
2018-03-21T11:27:55.370Z,12.60
2018-03-21T11:30:30.376Z,15.27
2018-03-21T11:33:05.321Z,11.98
2018-03-21T11:35:40.182Z,13.77
2018-03-21T11:38:15.163Z,12.40
2018-03-21T11:40:50.176Z,17.67
2018-03-21T11:43:24.809Z,16.90
2018-03-21T11:46:00.338Z,10.52
2018-03-21T11:48:35.321Z,10.90
2018-03-21T11:51:10.205Z,7.10
2018-03-21T11:53:45.214Z,11.70
2018-03-21T11:56:20.149Z,8.90
2018-03-21T11:58:55.391Z,8.52
2018-03-21T12:01:30.742Z,6.90
2018-03-21T12:04:05.670Z,10.17
2018-03-21T12:06:40.588Z,10.57
2018-03-21T12:09:15.463Z,10.83
2018-03-21T12:11:50.502Z,9.70
2018-03-21T12:14:25.229Z,9.83
2018-03-21T12:17:00.505Z,13.10
2018-03-21T12:19:35.877Z,6.27
2018-03-21T12:22:10.794Z,5.73
2018-03-21T12:24:45.887Z,11.40
2018-03-21T12:27:20.760Z,6.00
2018-03-21T12:29:55.759Z,11.53
2018-03-21T12:32:31.173Z,6.10
2018-03-21T12:35:06.538Z,9.00
2018-03-21T12:37:41.406Z,8.00
2018-03-21T12:40:16.361Z,7.55
2018-03-21T12:42:50.871Z,8.55
2018-03-21T12:45:26.246Z,9.87
2018-03-21T12:48:01.202Z,10.52
2018-03-21T12:50:35.647Z,7.77
2018-03-21T12:53:10.498Z,8.90
2018-03-21T12:55:45.527Z,12.57
2018-03-21T12:58:20.408Z,10.33
2018-03-21T13:00:54.892Z,8.63
2018-03-21T13:03:30.189Z,9.83
2018-03-21T13:06:05.017Z,8.63
2018-03-21T13:08:40.375Z,8.70
2018-03-21T13:11:15.182Z,7.10
2018-03-21T13:13:49.696Z,8.37
2018-03-21T13:16:24.455Z,9.87
2018-03-21T13:18:59.156Z,11.20
2018-03-21T13:21:33.934Z,7.87
2018-03-21T13:24:08.751Z,9.50
2018-03-21T13:26:43.689Z,9.20
2018-03-21T13:29:18.676Z,8.23
2018-03-21T13:31:53.567Z,8.63
2018-03-21T13:34:28.484Z,8.33
2018-03-21T13:37:03.433Z,3.83
2018-03-21T13:39:38.405Z,18.00
2018-03-21T13:42:13.379Z,12.55
2018-03-21T13:44:49.711Z,10.10
2018-03-21T13:47:24.179Z,10.00
2018-03-21T13:49:59.005Z,10.90
2018-03-21T13:52:33.474Z,7.50
2018-03-21T13:55:08.534Z,9.10
2018-03-21T13:57:43.478Z,10.97
2018-03-21T14:00:18.422Z,9.17
2018-03-21T14:02:53.653Z,12.63
2018-03-21T14:05:28.532Z,7.93
2018-03-21T14:08:03.523Z,13.38
2018-03-21T14:10:38.645Z,9.63
2018-03-21T14:13:13.581Z,6.57
2018-03-21T14:15:49.545Z,9.30
2018-03-21T14:18:24.499Z,8.67
2018-03-21T14:20:59.346Z,10.20
2018-03-21T14:23:34.437Z,7.57
2018-03-21T14:26:09.234Z,10.70
2018-03-21T14:28:44.026Z,11.73
2018-03-21T14:31:18.911Z,16.93
2018-03-21T14:33:53.859Z,9.23
2018-03-21T14:36:28.794Z,10.03
2018-03-21T14:39:03.299Z,4.95
2018-03-21T14:41:38.546Z,7.77
2018-03-21T14:44:13.434Z,8.13
2018-03-21T14:46:47.903Z,9.03
2018-03-21T14:49:22.943Z,7.63
2018-03-21T14:51:57.813Z,8.37
2018-03-21T14:54:32.659Z,6.50
2018-03-21T14:57:07.833Z,10.80
2018-03-21T14:59:42.572Z,5.50
2018-03-21T15:02:17.311Z,8.45
2018-03-21T15:04:52.190Z,11.17
2018-03-21T15:07:27.054Z,8.40
2018-03-21T15:10:02.014Z,3.20
2018-03-21T15:12:36.895Z,6.50
2018-03-21T15:15:12.022Z,5.33
2018-03-21T15:17:47.053Z,4.80
2018-03-21T15:20:22.614Z,6.33
2018-03-21T15:22:57.126Z,6.78
2018-03-21T15:25:31.974Z,5.23
2018-03-21T15:28:06.814Z,10.60
2018-03-21T15:30:41.650Z,3.53
2018-03-21T15:33:16.633Z,6.77
2018-03-21T15:35:51.606Z,7.57
2018-03-21T15:38:26.661Z,9.53
2018-03-21T15:41:01.638Z,8.60
2018-03-21T15:43:36.557Z,7.70
2018-03-21T15:46:11.658Z,7.13
2018-03-21T15:48:46.505Z,6.32
2018-03-21T15:51:21.188Z,11.93
2018-03-21T15:53:56.000Z,7.33
2018-03-21T15:56:30.992Z,8.90
2018-03-21T15:59:06.151Z,13.40
2018-03-21T16:01:41.147Z,8.80
2018-03-21T16:04:17.186Z,9.23
2018-03-21T16:06:52.569Z,8.77
2018-03-21T16:09:26.986Z,7.53
2018-03-21T16:12:01.746Z,8.27
2018-03-21T16:14:36.623Z,9.33
2018-03-21T16:17:11.667Z,8.13
2018-03-21T16:19:46.711Z,6.37
2018-03-21T16:22:21.666Z,13.40
2018-03-21T16:24:56.597Z,8.65
2018-03-21T16:27:31.510Z,6.68
2018-03-21T16:30:05.627Z,8.77
2018-03-21T16:32:40.991Z,11.80
2018-03-21T16:35:15.843Z,7.87
2018-03-21T16:37:50.719Z,9.70
2018-03-21T16:40:25.904Z,13.50
2018-03-21T16:43:00.613Z,11.63
2018-03-21T16:45:35.278Z,9.80
2018-03-21T16:48:10.146Z,12.17
2018-03-21T16:50:45.690Z,7.18
2018-03-21T16:53:20.051Z,9.20
2018-03-21T16:55:56.118Z,5.50
2018-03-21T16:58:30.974Z,7.43
2018-03-21T17:01:05.826Z,10.27
2018-03-21T17:03:40.809Z,5.77
2018-03-21T17:06:15.813Z,10.97
2018-03-21T17:08:51.190Z,7.83
2018-03-21T17:11:26.143Z,8.50
2018-03-21T17:14:01.377Z,12.87
2018-03-21T17:16:35.887Z,7.43
2018-03-21T17:19:10.960Z,5.97
2018-03-21T17:21:45.884Z,7.83
2018-03-21T17:24:20.875Z,11.33
2018-03-21T17:26:56.058Z,5.57
2018-03-21T17:29:31.014Z,8.53
2018-03-21T17:32:06.166Z,14.10
2018-03-21T17:34:41.242Z,12.27
2018-03-21T17:37:15.918Z,10.03
2018-03-21T17:39:50.807Z,13.30
2018-03-21T17:42:25.987Z,16.13
2018-03-21T17:45:00.878Z,12.93
2018-03-21T17:47:35.869Z,16.23
2018-03-21T17:50:11.810Z,13.53
2018-03-21T17:52:46.860Z,14.30
2018-03-21T17:55:21.520Z,10.23
2018-03-21T17:57:56.506Z,11.23
2018-03-21T18:00:40.202Z,17.40
2018-03-21T18:03:15.949Z,18.30
2018-03-21T18:05:50.956Z,13.53
2018-03-21T18:08:25.808Z,10.32
2018-03-21T18:11:00.915Z,12.65
2018-03-21T18:13:35.873Z,10.65
2018-03-21T18:16:10.578Z,13.57
2018-03-21T18:18:45.511Z,11.97
2018-03-21T18:21:20.379Z,15.20
2018-03-21T18:23:55.940Z,17.20
2018-03-21T18:26:30.915Z,10.00
2018-03-21T18:29:06.125Z,14.85
2018-03-21T18:31:41.415Z,16.60
2018-03-21T18:34:16.308Z,13.90
2018-03-21T18:36:51.285Z,18.23
2018-03-21T18:39:26.128Z,16.00
2018-03-21T18:42:01.471Z,17.70
2018-03-21T18:44:37.050Z,13.60
2018-03-21T18:47:11.742Z,14.70
2018-03-21T18:49:46.617Z,11.47
2018-03-21T18:52:21.417Z,9.00
2018-03-21T18:54:56.388Z,7.63
2018-03-21T18:57:31.316Z,9.37
2018-03-21T19:00:05.742Z,14.90
2018-03-21T19:02:41.027Z,9.10
2018-03-21T19:05:15.710Z,13.60
2018-03-21T19:07:51.103Z,14.57
2018-03-21T19:10:26.267Z,13.30
2018-03-21T19:13:01.204Z,12.60
2018-03-21T19:15:36.015Z,16.13
2018-03-21T19:18:11.066Z,17.47
2018-03-21T19:20:46.111Z,8.47
2018-03-21T19:23:21.001Z,17.65
2018-03-21T19:25:56.249Z,14.43
2018-03-21T19:28:31.499Z,13.43
2018-03-21T19:31:05.805Z,18.07
2018-03-21T19:33:41.094Z,13.10
2018-03-21T19:36:16.094Z,14.00
2018-03-21T19:38:51.435Z,12.30
2018-03-21T19:41:26.187Z,16.33
2018-03-21T19:44:01.259Z,14.63
2018-03-21T19:46:36.225Z,11.97
2018-03-21T19:49:11.086Z,10.43
2018-03-21T19:51:45.955Z,9.87
2018-03-21T19:54:21.106Z,11.80
2018-03-21T19:56:56.263Z,7.40
2018-03-21T19:59:31.146Z,16.48
2018-03-21T20:02:05.722Z,11.10
2018-03-21T20:04:40.662Z,9.53
2018-03-21T20:07:15.552Z,22.03
2018-03-21T20:09:50.907Z,9.70
2018-03-21T20:12:25.691Z,12.13
2018-03-21T20:15:00.638Z,14.32
2018-03-21T20:17:35.441Z,11.93
2018-03-21T20:20:10.474Z,12.07
2018-03-21T20:22:54.090Z,11.73
2018-03-21T20:25:28.745Z,16.50
2018-03-21T20:28:03.782Z,20.70
2018-03-21T20:30:38.692Z,14.60
2018-03-21T20:33:13.593Z,13.20
2018-03-21T20:35:48.418Z,11.77
2018-03-21T20:38:23.350Z,16.30
2018-03-21T20:40:58.498Z,15.77
2018-03-21T20:43:33.373Z,20.80
2018-03-21T20:46:08.314Z,15.25
2018-03-21T20:48:43.438Z,17.23
2018-03-21T20:51:18.537Z,12.27
2018-03-21T20:53:53.633Z,22.87
2018-03-21T20:56:28.405Z,17.03
2018-03-21T20:59:02.877Z,21.10
2018-03-21T21:01:37.627Z,17.40
2018-03-21T21:04:12.436Z,17.83
2018-03-21T21:06:47.591Z,26.10
2018-03-21T21:09:22.623Z,20.73
2018-03-21T21:11:57.723Z,26.50
2018-03-21T21:14:32.648Z,22.30
2018-03-21T21:17:07.618Z,17.63
2018-03-21T21:19:42.586Z,20.20
2018-03-21T21:22:17.329Z,17.83
2018-03-21T21:24:52.385Z,20.70
2018-03-21T21:27:27.431Z,19.50
2018-03-21T21:30:02.668Z,23.35
2018-03-21T21:32:37.452Z,20.30
2018-03-21T21:35:12.398Z,19.90
2018-03-21T21:37:47.477Z,24.77
2018-03-21T21:40:22.297Z,18.27
2018-03-21T21:42:57.756Z,17.80
2018-03-21T21:45:32.751Z,21.07
2018-03-21T21:48:07.577Z,23.37
2018-03-21T21:50:42.467Z,23.63
2018-03-21T21:53:17.443Z,24.17
2018-03-21T21:55:52.578Z,19.73
2018-03-21T21:58:27.410Z,22.13
2018-03-21T22:01:02.718Z,23.60
2018-03-21T22:03:37.511Z,23.93
2018-03-21T22:06:12.419Z,23.87
2018-03-21T22:08:47.574Z,24.60
2018-03-21T22:11:22.562Z,18.90
2018-03-21T22:13:57.012Z,14.67
2018-03-21T22:16:32.463Z,23.57
2018-03-21T22:19:07.450Z,21.33
2018-03-21T22:21:42.394Z,23.30
2018-03-21T22:24:17.471Z,28.83
2018-03-21T22:26:52.658Z,27.02
2018-03-21T22:29:27.001Z,16.80
2018-03-21T22:32:02.398Z,22.27
2018-03-21T22:34:37.041Z,23.73
2018-03-21T22:37:11.696Z,19.50
2018-03-21T22:39:46.898Z,27.33
2018-03-21T22:42:21.849Z,22.73
2018-03-21T22:44:56.781Z,19.45
2018-03-21T22:47:31.462Z,22.13
2018-03-21T22:50:06.062Z,23.58
2018-03-21T22:52:41.025Z,23.03
2018-03-21T22:55:15.962Z,27.20
2018-03-21T22:57:51.083Z,25.67
2018-03-21T23:00:25.622Z,22.30
2018-03-21T23:03:00.681Z,19.00
2018-03-21T23:05:35.788Z,23.97
2018-03-21T23:08:10.466Z,19.20
2018-03-21T23:10:45.878Z,22.63
2018-03-21T23:13:20.873Z,19.53
2018-03-21T23:15:55.966Z,17.53
2018-03-21T23:18:30.824Z,20.90
2018-03-21T23:21:05.804Z,26.87
2018-03-21T23:23:41.806Z,30.07
2018-03-21T23:26:16.751Z,23.13
2018-03-21T23:28:51.577Z,19.20
2018-03-21T23:31:26.621Z,20.70
2018-03-21T23:34:01.110Z,21.10
2018-03-21T23:36:36.007Z,24.13
2018-03-21T23:39:10.880Z,18.73
2018-03-21T23:41:46.135Z,21.20
2018-03-21T23:44:37.883Z,15.47
2018-03-21T23:47:12.984Z,19.83
2018-03-21T23:49:47.462Z,15.70
2018-03-21T23:52:22.764Z,23.17
2018-03-21T23:54:57.712Z,19.52
2018-03-21T23:57:32.759Z,14.40
